Vremea acum in Pecica - Romania

Vrei sa afli care e starea vremii acum in Timis - Romania? Dorim sa iti furnizam starea vremii pentru Timis - Romania. Starea vremii Timis - Romania pentru astazi.

Vremea acum in Pecica

Temperatura: 0 °C

Se simte ca: -4.4 °C
Innorat: 0 %
Precipitatii: 0 %
Presiune atmosferica: 1019 hPa
Umiditate: 93%
Vizibilitate: 10 km
Vantul bate din NE cu 15.1 km/h

Evolutia vremii in Pecica pe ore

Ora: 17:00
Noros
Temperatura: 0.9°C
Sansa de precipitatii: 0%
Ora Descriere Temp Se simte Precipitatii Umiditate Vant
00:00Parțial noros-0.9°-4.2°0%84%NE 9 KM/H
01:00Parțial noros-1.1°-4.5°0%83%NE 9.7 KM/H
02:00Parțial noros-1.2°-4.9°0%83%NE 10.4 KM/H
03:00Parțial noros-1.2°-4.9°0%82%NE 10.1 KM/H
04:00Parțial noros-1.3°-4.8°0%81%NE 10.1 KM/H
05:00Parțial noros-1.3°-4.8°0%80%NE 9.7 KM/H
06:00Parțial noros-1.4°-4.8°0%80%NE 9.4 KM/H
07:00Parțial noros-1.4°-4.8°0%79%NE 9.4 KM/H
08:00Parțial noros-1.5°-4.8°0%78%NE 9 KM/H
09:00Parțial noros-0.6°-3.9°0%73%NE 9.7 KM/H
10:00Parțial noros0.2°-3.1°0%67%NE 10.1 KM/H
11:00Parțial noros1.1°-2.2°0%61%NE 10.8 KM/H
12:00Noros1.7°-1.5°0%58%NE 10.8 KM/H
13:00Parțial noros2.3°-0.7°0%56%NE 10.4 KM/H
14:00Noros2.9°0%53%NE 10.4 KM/H
15:00Noros2.2°-0.7°0%57%NE 10.1 KM/H
16:00Noros1.6°-1.5°0%61%NE 10.1 KM/H
17:00Noros0.9°-2.2°0%65%NNE 9.7 KM/H
18:00Ninsori moderate0.9°-2°26%66%NNE 9 KM/H
19:00Noros0.9°-1.9°51%66%NE 8.6 KM/H
20:00Ninsori moderate0.9°-1.7°77%67%NE 7.9 KM/H
21:00Ninsori în cantităţi însemnate0.7°-1.9°75%72%NE 7.9 KM/H
22:00Ninsori moderate0.6°-2°73%77%NE 7.9 KM/H
23:00Ninsori în cantităţi însemnate0.4°-2.2°71%82%ENE 7.9 KM/H